sensor_id;sensor_type;location;lat;lon;timestamp;temperature;humidity
15636;DHT22;7917;50.818;6.972;2024-02-28T00:01:01;2.00;99.90
15636;DHT22;7917;50.818;6.972;2024-02-28T00:03:27;2.00;99.90
15636;DHT22;7917;50.818;6.972;2024-02-28T00:05:53;2.00;99.90
15636;DHT22;7917;50.818;6.972;2024-02-28T00:08:20;2.00;99.90
15636;DHT22;7917;50.818;6.972;2024-02-28T00:10:47;2.10;99.90
15636;DHT22;7917;50.818;6.972;2024-02-28T00:13:14;2.20;99.90
15636;DHT22;7917;50.818;6.972;2024-02-28T00:15:41;2.30;99.90
15636;DHT22;7917;50.818;6.972;2024-02-28T00:18:08;2.40;99.90
15636;DHT22;7917;50.818;6.972;2024-02-28T00:20:34;2.50;99.90
15636;DHT22;7917;50.818;6.972;2024-02-28T00:23:00;2.60;99.90
15636;DHT22;7917;50.818;6.972;2024-02-28T00:25:27;2.70;99.90
15636;DHT22;7917;50.818;6.972;2024-02-28T00:27:53;2.80;99.90
15636;DHT22;7917;50.818;6.972;2024-02-28T00:30:19;2.90;99.90
15636;DHT22;7917;50.818;6.972;2024-02-28T00:32:45;2.90;99.90
15636;DHT22;7917;50.818;6.972;2024-02-28T00:35:11;3.00;99.90
15636;DHT22;7917;50.818;6.972;2024-02-28T00:37:38;3.00;99.90
15636;DHT22;7917;50.818;6.972;2024-02-28T00:40:08;3.00;99.90
15636;DHT22;7917;50.818;6.972;2024-02-28T00:42:35;3.10;99.90
15636;DHT22;7917;50.818;6.972;2024-02-28T00:45:01;3.10;99.90
15636;DHT22;7917;50.818;6.972;2024-02-28T00:47:28;3.10;99.90
15636;DHT22;7917;50.818;6.972;2024-02-28T00:49:54;3.10;99.90
15636;DHT22;7917;50.818;6.972;2024-02-28T00:52:20;3.20;99.90
15636;DHT22;7917;50.818;6.972;2024-02-28T00:54:46;3.20;99.90
15636;DHT22;7917;50.818;6.972;2024-02-28T00:57:13;3.20;99.90
15636;DHT22;7917;50.818;6.972;2024-02-28T00:59:39;3.30;99.90
15636;DHT22;7917;50.818;6.972;2024-02-28T01:02:06;3.30;99.90
15636;DHT22;7917;50.818;6.972;2024-02-28T01:04:32;3.30;99.90
15636;DHT22;7917;50.818;6.972;2024-02-28T01:06:58;3.30;99.90
15636;DHT22;7917;50.818;6.972;2024-02-28T01:09:25;3.30;99.90
15636;DHT22;7917;50.818;6.972;2024-02-28T01:11:51;3.30;99.90
15636;DHT22;7917;50.818;6.972;2024-02-28T01:14:17;3.30;99.90
15636;DHT22;7917;50.818;6.972;2024-02-28T01:16:44;3.30;99.90
15636;DHT22;7917;50.818;6.972;2024-02-28T01:19:11;3.30;99.90
15636;DHT22;7917;50.818;6.972;2024-02-28T01:21:38;3.30;99.90
15636;DHT22;7917;50.818;6.972;2024-02-28T01:24:05;3.30;99.90
15636;DHT22;7917;50.818;6.972;2024-02-28T01:26:31;3.30;99.90
15636;DHT22;7917;50.818;6.972;2024-02-28T01:28:57;3.40;99.90
15636;DHT22;7917;50.818;6.972;2024-02-28T01:31:24;3.40;99.90
15636;DHT22;7917;50.818;6.972;2024-02-28T01:33:51;3.40;99.90
15636;DHT22;7917;50.818;6.972;2024-02-28T01:36:17;3.40;99.90
15636;DHT22;7917;50.818;6.972;2024-02-28T01:38:43;3.40;99.90
15636;DHT22;7917;50.818;6.972;2024-02-28T01:41:09;3.40;99.90
15636;DHT22;7917;50.818;6.972;2024-02-28T01:43:36;3.40;99.90
15636;DHT22;7917;50.818;6.972;2024-02-28T01:46:18;3.40;99.90
15636;DHT22;7917;50.818;6.972;2024-02-28T01:48:46;3.50;99.90
15636;DHT22;7917;50.818;6.972;2024-02-28T01:51:13;3.50;99.90
15636;DHT22;7917;50.818;6.972;2024-02-28T01:53:39;3.50;99.90
15636;DHT22;7917;50.818;6.972;2024-02-28T01:56:12;3.50;99.90
15636;DHT22;7917;50.818;6.972;2024-02-28T01:58:40;3.50;99.90
15636;DHT22;7917;50.818;6.972;2024-02-28T02:01:07;3.50;99.90
15636;DHT22;7917;50.818;6.972;2024-02-28T02:03:35;3.60;99.90
15636;DHT22;7917;50.818;6.972;2024-02-28T02:06:02;3.60;99.90
15636;DHT22;7917;50.818;6.972;2024-02-28T02:08:29;3.60;99.90
15636;DHT22;7917;50.818;6.972;2024-02-28T02:10:56;3.60;99.90
15636;DHT22;7917;50.818;6.972;2024-02-28T02:13:22;3.60;99.90
15636;DHT22;7917;50.818;6.972;2024-02-28T02:15:48;3.60;99.90
15636;DHT22;7917;50.818;6.972;2024-02-28T02:18:15;3.60;99.90
15636;DHT22;7917;50.818;6.972;2024-02-28T02:20:44;3.70;99.90
15636;DHT22;7917;50.818;6.972;2024-02-28T02:23:14;3.70;99.90
15636;DHT22;7917;50.818;6.972;2024-02-28T02:25:44;3.70;99.90
15636;DHT22;7917;50.818;6.972;2024-02-28T02:28:11;3.70;99.90
15636;DHT22;7917;50.818;6.972;2024-02-28T02:30:38;3.70;99.90
15636;DHT22;7917;50.818;6.972;2024-02-28T02:33:04;3.80;99.90
15636;DHT22;7917;50.818;6.972;2024-02-28T02:35:32;3.80;99.90
15636;DHT22;7917;50.818;6.972;2024-02-28T02:37:59;3.80;99.90
15636;DHT22;7917;50.818;6.972;2024-02-28T02:40:26;3.80;99.90
15636;DHT22;7917;50.818;6.972;2024-02-28T02:42:52;3.90;99.90
15636;DHT22;7917;50.818;6.972;2024-02-28T02:45:18;3.90;99.90
15636;DHT22;7917;50.818;6.972;2024-02-28T02:47:45;3.90;99.90
15636;DHT22;7917;50.818;6.972;2024-02-28T02:50:11;3.80;99.90
15636;DHT22;7917;50.818;6.972;2024-02-28T02:52:37;3.80;99.90
15636;DHT22;7917;50.818;6.972;2024-02-28T02:55:04;3.90;99.90
15636;DHT22;7917;50.818;6.972;2024-02-28T02:57:32;3.90;99.90
15636;DHT22;7917;50.818;6.972;2024-02-28T02:59:59;3.80;99.90
15636;DHT22;7917;50.818;6.972;2024-02-28T03:02:25;3.80;99.90
15636;DHT22;7917;50.818;6.972;2024-02-28T03:04:52;3.80;99.90
15636;DHT22;7917;50.818;6.972;2024-02-28T03:07:18;3.90;99.90
15636;DHT22;7917;50.818;6.972;2024-02-28T03:09:44;3.90;99.90
15636;DHT22;7917;50.818;6.972;2024-02-28T03:12:10;3.90;99.90
15636;DHT22;7917;50.818;6.972;2024-02-28T03:14:37;3.80;99.90
15636;DHT22;7917;50.818;6.972;2024-02-28T03:17:03;3.80;99.90
15636;DHT22;7917;50.818;6.972;2024-02-28T03:19:30;3.80;99.90
15636;DHT22;7917;50.818;6.972;2024-02-28T03:21:56;3.80;99.90
15636;DHT22;7917;50.818;6.972;2024-02-28T03:24:22;3.80;99.90
15636;DHT22;7917;50.818;6.972;2024-02-28T03:26:48;3.80;99.90
15636;DHT22;7917;50.818;6.972;2024-02-28T03:29:15;3.80;99.90
15636;DHT22;7917;50.818;6.972;2024-02-28T03:31:42;3.80;99.90
15636;DHT22;7917;50.818;6.972;2024-02-28T03:34:08;3.80;99.90
15636;DHT22;7917;50.818;6.972;2024-02-28T03:36:36;3.80;99.90
15636;DHT22;7917;50.818;6.972;2024-02-28T03:39:02;3.80;99.90
15636;DHT22;7917;50.818;6.972;2024-02-28T03:41:29;3.80;99.90
15636;DHT22;7917;50.818;6.972;2024-02-28T03:43:55;3.80;99.90
15636;DHT22;7917;50.818;6.972;2024-02-28T03:46:22;3.80;99.90
15636;DHT22;7917;50.818;6.972;2024-02-28T03:48:49;3.80;99.90
15636;DHT22;7917;50.818;6.972;2024-02-28T03:51:16;3.80;99.90
15636;DHT22;7917;50.818;6.972;2024-02-28T03:53:42;3.70;99.90
15636;DHT22;7917;50.818;6.972;2024-02-28T03:56:08;3.70;99.90
15636;DHT22;7917;50.818;6.972;2024-02-28T03:58:34;3.70;99.90
15636;DHT22;7917;50.818;6.972;2024-02-28T04:04:23;3.70;99.90
15636;DHT22;7917;50.818;6.972;2024-02-28T04:06:50;3.70;99.90
15636;DHT22;7917;50.818;6.972;2024-02-28T04:09:17;3.70;99.90
15636;DHT22;7917;50.818;6.972;2024-02-28T04:11:43;3.70;99.90
15636;DHT22;7917;50.818;6.972;2024-02-28T04:14:10;3.70;99.90
15636;DHT22;7917;50.818;6.972;2024-02-28T04:16:41;3.60;99.90
15636;DHT22;7917;50.818;6.972;2024-02-28T04:19:09;3.60;99.90
15636;DHT22;7917;50.818;6.972;2024-02-28T04:21:37;3.60;99.90
15636;DHT22;7917;50.818;6.972;2024-02-28T04:24:04;3.50;99.90
15636;DHT22;7917;50.818;6.972;2024-02-28T04:26:30;3.50;99.90
15636;DHT22;7917;50.818;6.972;2024-02-28T04:28:57;3.50;99.90
15636;DHT22;7917;50.818;6.972;2024-02-28T04:31:24;3.50;99.90
15636;DHT22;7917;50.818;6.972;2024-02-28T04:33:51;3.60;99.90
15636;DHT22;7917;50.818;6.972;2024-02-28T04:36:18;3.60;99.90
15636;DHT22;7917;50.818;6.972;2024-02-28T04:38:45;3.60;99.90
15636;DHT22;7917;50.818;6.972;2024-02-28T04:41:13;3.60;99.90
15636;DHT22;7917;50.818;6.972;2024-02-28T04:43:40;3.60;99.90
15636;DHT22;7917;50.818;6.972;2024-02-28T04:46:07;3.60;99.90
15636;DHT22;7917;50.818;6.972;2024-02-28T04:48:34;3.60;99.90
15636;DHT22;7917;50.818;6.972;2024-02-28T04:51:01;3.60;99.90
15636;DHT22;7917;50.818;6.972;2024-02-28T04:53:28;3.60;99.90
15636;DHT22;7917;50.818;6.972;2024-02-28T04:55:55;3.60;99.90
15636;DHT22;7917;50.818;6.972;2024-02-28T04:58:22;3.60;99.90
15636;DHT22;7917;50.818;6.972;2024-02-28T05:00:49;3.70;99.90
15636;DHT22;7917;50.818;6.972;2024-02-28T05:03:16;3.70;99.90
15636;DHT22;7917;50.818;6.972;2024-02-28T05:05:43;3.70;99.90
15636;DHT22;7917;50.818;6.972;2024-02-28T05:08:09;3.70;99.90
15636;DHT22;7917;50.818;6.972;2024-02-28T05:10:37;3.70;99.90
15636;DHT22;7917;50.818;6.972;2024-02-28T05:13:05;3.70;99.90
15636;DHT22;7917;50.818;6.972;2024-02-28T05:15:32;3.70;99.90
15636;DHT22;7917;50.818;6.972;2024-02-28T05:17:59;3.70;99.90
15636;DHT22;7917;50.818;6.972;2024-02-28T05:20:26;3.70;99.90
15636;DHT22;7917;50.818;6.972;2024-02-28T05:22:52;3.80;99.90
15636;DHT22;7917;50.818;6.972;2024-02-28T05:25:19;3.80;99.90
15636;DHT22;7917;50.818;6.972;2024-02-28T05:27:46;3.80;99.90
15636;DHT22;7917;50.818;6.972;2024-02-28T05:30:14;3.80;99.90
15636;DHT22;7917;50.818;6.972;2024-02-28T05:32:40;3.80;99.90
15636;DHT22;7917;50.818;6.972;2024-02-28T05:35:08;3.80;99.90
15636;DHT22;7917;50.818;6.972;2024-02-28T05:37:37;3.80;99.90
15636;DHT22;7917;50.818;6.972;2024-02-28T05:40:06;3.80;99.90
15636;DHT22;7917;50.818;6.972;2024-02-28T05:42:33;3.80;99.90
15636;DHT22;7917;50.818;6.972;2024-02-28T05:44:59;3.80;99.90
15636;DHT22;7917;50.818;6.972;2024-02-28T05:47:27;3.90;99.90
15636;DHT22;7917;50.818;6.972;2024-02-28T05:49:54;3.80;99.90
15636;DHT22;7917;50.818;6.972;2024-02-28T05:52:22;3.80;99.90
15636;DHT22;7917;50.818;6.972;2024-02-28T05:54:48;3.80;99.90
15636;DHT22;7917;50.818;6.972;2024-02-28T05:57:15;3.80;99.90
15636;DHT22;7917;50.818;6.972;2024-02-28T05:59:42;3.80;99.90
15636;DHT22;7917;50.818;6.972;2024-02-28T06:02:09;3.90;99.90
15636;DHT22;7917;50.818;6.972;2024-02-28T06:04:37;3.90;99.90
15636;DHT22;7917;50.818;6.972;2024-02-28T06:07:04;3.90;99.90
15636;DHT22;7917;50.818;6.972;2024-02-28T06:09:31;3.90;99.90
15636;DHT22;7917;50.818;6.972;2024-02-28T06:11:58;3.90;99.90
15636;DHT22;7917;50.818;6.972;2024-02-28T06:14:25;3.90;99.90
15636;DHT22;7917;50.818;6.972;2024-02-28T06:16:52;3.90;99.90
15636;DHT22;7917;50.818;6.972;2024-02-28T06:19:18;3.90;99.90
15636;DHT22;7917;50.818;6.972;2024-02-28T06:21:46;3.90;99.90
15636;DHT22;7917;50.818;6.972;2024-02-28T06:24:12;3.90;99.90
15636;DHT22;7917;50.818;6.972;2024-02-28T06:26:39;4.00;99.90
15636;DHT22;7917;50.818;6.972;2024-02-28T06:29:07;3.90;99.90
15636;DHT22;7917;50.818;6.972;2024-02-28T06:31:34;4.00;99.90
15636;DHT22;7917;50.818;6.972;2024-02-28T06:34:02;4.00;99.90
15636;DHT22;7917;50.818;6.972;2024-02-28T06:36:29;4.10;99.90
15636;DHT22;7917;50.818;6.972;2024-02-28T06:38:57;4.10;99.90
15636;DHT22;7917;50.818;6.972;2024-02-28T06:41:24;4.10;99.90
15636;DHT22;7917;50.818;6.972;2024-02-28T06:43:50;4.10;99.90
15636;DHT22;7917;50.818;6.972;2024-02-28T06:46:17;4.10;99.90
15636;DHT22;7917;50.818;6.972;2024-02-28T06:48:44;4.10;99.90
15636;DHT22;7917;50.818;6.972;2024-02-28T06:51:10;4.10;99.90
15636;DHT22;7917;50.818;6.972;2024-02-28T06:53:37;4.10;99.90
15636;DHT22;7917;50.818;6.972;2024-02-28T06:56:07;4.20;99.90
15636;DHT22;7917;50.818;6.972;2024-02-28T06:58:35;4.20;99.90
15636;DHT22;7917;50.818;6.972;2024-02-28T07:01:01;4.20;99.90
15636;DHT22;7917;50.818;6.972;2024-02-28T07:03:28;4.20;99.90
15636;DHT22;7917;50.818;6.972;2024-02-28T07:05:56;4.20;99.90
15636;DHT22;7917;50.818;6.972;2024-02-28T07:08:23;4.30;99.90
15636;DHT22;7917;50.818;6.972;2024-02-28T07:10:49;4.30;99.90
15636;DHT22;7917;50.818;6.972;2024-02-28T07:13:20;4.30;99.90
15636;DHT22;7917;50.818;6.972;2024-02-28T07:15:47;4.40;99.90
15636;DHT22;7917;50.818;6.972;2024-02-28T07:18:15;4.40;99.90
15636;DHT22;7917;50.818;6.972;2024-02-28T07:20:42;4.50;99.90
15636;DHT22;7917;50.818;6.972;2024-02-28T07:23:09;4.50;99.90
15636;DHT22;7917;50.818;6.972;2024-02-28T07:25:35;4.50;99.90
15636;DHT22;7917;50.818;6.972;2024-02-28T07:28:03;4.60;99.90
15636;DHT22;7917;50.818;6.972;2024-02-28T07:30:30;4.60;99.90
15636;DHT22;7917;50.818;6.972;2024-02-28T07:32:57;4.60;99.90
15636;DHT22;7917;50.818;6.972;2024-02-28T07:35:24;4.60;99.90
15636;DHT22;7917;50.818;6.972;2024-02-28T07:37:50;4.60;99.90
15636;DHT22;7917;50.818;6.972;2024-02-28T07:40:17;4.50;99.90
15636;DHT22;7917;50.818;6.972;2024-02-28T07:42:44;4.50;99.90
15636;DHT22;7917;50.818;6.972;2024-02-28T07:45:11;4.60;99.90
15636;DHT22;7917;50.818;6.972;2024-02-28T07:47:38;4.60;99.90
15636;DHT22;7917;50.818;6.972;2024-02-28T07:50:07;4.60;99.90
15636;DHT22;7917;50.818;6.972;2024-02-28T07:52:33;4.60;99.90
15636;DHT22;7917;50.818;6.972;2024-02-28T07:55:05;4.70;99.90
15636;DHT22;7917;50.818;6.972;2024-02-28T07:57:32;4.70;99.90
15636;DHT22;7917;50.818;6.972;2024-02-28T07:59:59;4.80;99.90
15636;DHT22;7917;50.818;6.972;2024-02-28T08:02:25;4.80;99.90
15636;DHT22;7917;50.818;6.972;2024-02-28T08:04:53;4.80;99.90
15636;DHT22;7917;50.818;6.972;2024-02-28T08:07:20;4.90;99.90
15636;DHT22;7917;50.818;6.972;2024-02-28T08:09:46;5.00;99.90
15636;DHT22;7917;50.818;6.972;2024-02-28T08:12:13;5.00;99.90
15636;DHT22;7917;50.818;6.972;2024-02-28T08:14:40;5.10;99.90
15636;DHT22;7917;50.818;6.972;2024-02-28T08:17:07;5.20;99.90
15636;DHT22;7917;50.818;6.972;2024-02-28T08:19:33;5.20;99.90
15636;DHT22;7917;50.818;6.972;2024-02-28T08:22:01;5.30;99.90
15636;DHT22;7917;50.818;6.972;2024-02-28T08:24:28;5.30;99.90
15636;DHT22;7917;50.818;6.972;2024-02-28T08:26:55;5.30;99.90
15636;DHT22;7917;50.818;6.972;2024-02-28T08:29:21;5.30;99.90
15636;DHT22;7917;50.818;6.972;2024-02-28T08:31:48;5.30;99.90
15636;DHT22;7917;50.818;6.972;2024-02-28T08:34:14;5.40;99.90
15636;DHT22;7917;50.818;6.972;2024-02-28T08:36:41;5.40;99.90
15636;DHT22;7917;50.818;6.972;2024-02-28T08:39:08;5.40;99.90
15636;DHT22;7917;50.818;6.972;2024-02-28T08:41:35;5.50;99.90
15636;DHT22;7917;50.818;6.972;2024-02-28T08:44:02;5.50;99.90
15636;DHT22;7917;50.818;6.972;2024-02-28T08:46:29;5.50;99.90
15636;DHT22;7917;50.818;6.972;2024-02-28T08:48:55;5.60;99.90
15636;DHT22;7917;50.818;6.972;2024-02-28T08:51:22;5.60;99.90
15636;DHT22;7917;50.818;6.972;2024-02-28T08:53:49;5.70;99.90
15636;DHT22;7917;50.818;6.972;2024-02-28T08:56:18;5.80;99.90
15636;DHT22;7917;50.818;6.972;2024-02-28T08:58:45;5.80;99.90
15636;DHT22;7917;50.818;6.972;2024-02-28T09:01:33;6.00;99.90
15636;DHT22;7917;50.818;6.972;2024-02-28T09:04:00;6.00;99.90
15636;DHT22;7917;50.818;6.972;2024-02-28T09:06:26;6.10;99.90
15636;DHT22;7917;50.818;6.972;2024-02-28T09:08:53;6.00;99.90
15636;DHT22;7917;50.818;6.972;2024-02-28T09:11:21;6.20;99.90
15636;DHT22;7917;50.818;6.972;2024-02-28T09:13:47;6.30;99.90
15636;DHT22;7917;50.818;6.972;2024-02-28T09:16:15;6.30;99.90
15636;DHT22;7917;50.818;6.972;2024-02-28T09:18:42;6.40;99.90
15636;DHT22;7917;50.818;6.972;2024-02-28T09:21:08;6.30;99.90
15636;DHT22;7917;50.818;6.972;2024-02-28T09:23:35;6.40;99.90
15636;DHT22;7917;50.818;6.972;2024-02-28T09:26:03;6.50;99.90
15636;DHT22;7917;50.818;6.972;2024-02-28T09:28:31;6.60;99.90
15636;DHT22;7917;50.818;6.972;2024-02-28T09:30:58;6.80;99.90
15636;DHT22;7917;50.818;6.972;2024-02-28T09:33:24;6.80;99.90
15636;DHT22;7917;50.818;6.972;2024-02-28T09:35:51;6.80;99.90
15636;DHT22;7917;50.818;6.972;2024-02-28T09:38:19;6.90;99.90
15636;DHT22;7917;50.818;6.972;2024-02-28T09:40:46;6.80;99.90
15636;DHT22;7917;50.818;6.972;2024-02-28T09:43:18;6.90;99.90
15636;DHT22;7917;50.818;6.972;2024-02-28T09:45:47;6.90;99.90
15636;DHT22;7917;50.818;6.972;2024-02-28T09:48:15;6.80;99.90
15636;DHT22;7917;50.818;6.972;2024-02-28T09:50:44;6.70;99.90
15636;DHT22;7917;50.818;6.972;2024-02-28T09:53:11;6.80;99.90
15636;DHT22;7917;50.818;6.972;2024-02-28T09:55:38;6.90;99.90
15636;DHT22;7917;50.818;6.972;2024-02-28T09:58:05;7.00;99.90
15636;DHT22;7917;50.818;6.972;2024-02-28T10:00:35;7.00;99.90
15636;DHT22;7917;50.818;6.972;2024-02-28T10:03:04;7.00;99.90
15636;DHT22;7917;50.818;6.972;2024-02-28T10:05:33;6.90;99.90
15636;DHT22;7917;50.818;6.972;2024-02-28T10:08:00;6.80;99.90
15636;DHT22;7917;50.818;6.972;2024-02-28T10:10:28;6.70;99.90
15636;DHT22;7917;50.818;6.972;2024-02-28T10:12:55;6.80;99.90
15636;DHT22;7917;50.818;6.972;2024-02-28T10:15:22;6.90;99.90
15636;DHT22;7917;50.818;6.972;2024-02-28T10:17:49;7.00;99.90
15636;DHT22;7917;50.818;6.972;2024-02-28T10:20:16;7.00;99.90
15636;DHT22;7917;50.818;6.972;2024-02-28T10:22:43;7.20;99.90
15636;DHT22;7917;50.818;6.972;2024-02-28T10:25:10;7.40;99.90
15636;DHT22;7917;50.818;6.972;2024-02-28T10:27:36;7.40;99.90
15636;DHT22;7917;50.818;6.972;2024-02-28T10:30:05;7.40;99.90
15636;DHT22;7917;50.818;6.972;2024-02-28T10:32:32;7.40;99.90
15636;DHT22;7917;50.818;6.972;2024-02-28T10:34:59;7.50;99.90
15636;DHT22;7917;50.818;6.972;2024-02-28T10:37:28;7.50;99.90
15636;DHT22;7917;50.818;6.972;2024-02-28T10:39:57;7.50;99.90
15636;DHT22;7917;50.818;6.972;2024-02-28T10:42:25;7.60;99.90
15636;DHT22;7917;50.818;6.972;2024-02-28T10:44:56;7.70;99.90
15636;DHT22;7917;50.818;6.972;2024-02-28T10:47:24;7.80;99.90
15636;DHT22;7917;50.818;6.972;2024-02-28T10:49:52;7.90;99.90
15636;DHT22;7917;50.818;6.972;2024-02-28T10:52:22;8.10;99.90
15636;DHT22;7917;50.818;6.972;2024-02-28T10:54:53;8.20;99.90
15636;DHT22;7917;50.818;6.972;2024-02-28T10:57:22;8.40;99.90
15636;DHT22;7917;50.818;6.972;2024-02-28T10:59:51;8.40;99.90
15636;DHT22;7917;50.818;6.972;2024-02-28T11:02:18;8.40;99.90
15636;DHT22;7917;50.818;6.972;2024-02-28T11:04:44;8.60;99.90
15636;DHT22;7917;50.818;6.972;2024-02-28T11:07:11;8.60;99.90
15636;DHT22;7917;50.818;6.972;2024-02-28T11:09:45;8.40;99.90
15636;DHT22;7917;50.818;6.972;2024-02-28T11:12:25;8.70;99.90
15636;DHT22;7917;50.818;6.972;2024-02-28T11:14:57;8.70;99.90
15636;DHT22;7917;50.818;6.972;2024-02-28T11:17:26;8.80;99.90
15636;DHT22;7917;50.818;6.972;2024-02-28T11:19:53;9.00;99.90
15636;DHT22;7917;50.818;6.972;2024-02-28T11:22:20;9.10;99.90
15636;DHT22;7917;50.818;6.972;2024-02-28T11:24:47;9.10;99.90
15636;DHT22;7917;50.818;6.972;2024-02-28T11:27:15;9.10;99.90
15636;DHT22;7917;50.818;6.972;2024-02-28T11:29:43;9.20;99.90
15636;DHT22;7917;50.818;6.972;2024-02-28T11:32:12;9.20;99.90
15636;DHT22;7917;50.818;6.972;2024-02-28T11:34:39;9.20;99.90
15636;DHT22;7917;50.818;6.972;2024-02-28T11:37:06;9.10;99.90
15636;DHT22;7917;50.818;6.972;2024-02-28T11:39:36;9.20;99.90
15636;DHT22;7917;50.818;6.972;2024-02-28T11:42:12;9.40;99.90
15636;DHT22;7917;50.818;6.972;2024-02-28T11:44:39;9.60;99.90
15636;DHT22;7917;50.818;6.972;2024-02-28T11:47:09;9.70;99.90
15636;DHT22;7917;50.818;6.972;2024-02-28T11:49:36;9.60;99.90
15636;DHT22;7917;50.818;6.972;2024-02-28T11:52:04;9.70;99.90
15636;DHT22;7917;50.818;6.972;2024-02-28T11:54:30;9.70;99.90
15636;DHT22;7917;50.818;6.972;2024-02-28T11:56:57;9.90;99.90
15636;DHT22;7917;50.818;6.972;2024-02-28T11:59:24;10.00;99.90
15636;DHT22;7917;50.818;6.972;2024-02-28T12:01:54;10.00;99.90
15636;DHT22;7917;50.818;6.972;2024-02-28T12:04:24;10.10;99.90
15636;DHT22;7917;50.818;6.972;2024-02-28T12:06:51;10.10;99.90
15636;DHT22;7917;50.818;6.972;2024-02-28T12:09:19;10.20;99.90
15636;DHT22;7917;50.818;6.972;2024-02-28T12:11:46;10.40;99.90
15636;DHT22;7917;50.818;6.972;2024-02-28T12:14:13;10.20;99.90
15636;DHT22;7917;50.818;6.972;2024-02-28T12:16:41;10.20;99.90
15636;DHT22;7917;50.818;6.972;2024-02-28T12:19:08;10.20;99.90
15636;DHT22;7917;50.818;6.972;2024-02-28T12:21:36;10.20;99.90
15636;DHT22;7917;50.818;6.972;2024-02-28T12:24:03;10.10;99.90
15636;DHT22;7917;50.818;6.972;2024-02-28T12:26:30;10.30;99.90
15636;DHT22;7917;50.818;6.972;2024-02-28T12:28:57;10.30;99.90
15636;DHT22;7917;50.818;6.972;2024-02-28T12:31:24;10.60;99.90
15636;DHT22;7917;50.818;6.972;2024-02-28T12:33:51;10.70;99.90
15636;DHT22;7917;50.818;6.972;2024-02-28T12:36:17;10.90;99.90
15636;DHT22;7917;50.818;6.972;2024-02-28T12:38:46;10.80;99.90
15636;DHT22;7917;50.818;6.972;2024-02-28T12:41:13;11.00;99.90
15636;DHT22;7917;50.818;6.972;2024-02-28T12:43:39;11.10;99.90
15636;DHT22;7917;50.818;6.972;2024-02-28T12:46:06;11.00;99.90
15636;DHT22;7917;50.818;6.972;2024-02-28T12:48:37;10.90;99.90
15636;DHT22;7917;50.818;6.972;2024-02-28T12:51:04;10.90;99.90
15636;DHT22;7917;50.818;6.972;2024-02-28T12:53:31;11.00;99.90
15636;DHT22;7917;50.818;6.972;2024-02-28T12:55:59;11.00;99.90
15636;DHT22;7917;50.818;6.972;2024-02-28T12:58:25;11.00;99.90
15636;DHT22;7917;50.818;6.972;2024-02-28T13:00:52;11.00;99.90
15636;DHT22;7917;50.818;6.972;2024-02-28T13:03:18;11.20;99.90
15636;DHT22;7917;50.818;6.972;2024-02-28T13:05:45;11.40;99.90
15636;DHT22;7917;50.818;6.972;2024-02-28T13:08:13;11.50;99.90
15636;DHT22;7917;50.818;6.972;2024-02-28T13:10:39;11.60;99.90
15636;DHT22;7917;50.818;6.972;2024-02-28T13:13:07;11.70;99.90
15636;DHT22;7917;50.818;6.972;2024-02-28T13:15:34;11.80;99.90
15636;DHT22;7917;50.818;6.972;2024-02-28T13:18:00;11.80;99.90
15636;DHT22;7917;50.818;6.972;2024-02-28T13:20:33;11.90;99.90
15636;DHT22;7917;50.818;6.972;2024-02-28T13:23:00;12.00;99.90
15636;DHT22;7917;50.818;6.972;2024-02-28T13:25:26;11.90;99.90
15636;DHT22;7917;50.818;6.972;2024-02-28T13:27:54;11.90;99.90
15636;DHT22;7917;50.818;6.972;2024-02-28T13:30:21;12.00;99.90
15636;DHT22;7917;50.818;6.972;2024-02-28T13:32:48;12.00;99.90
15636;DHT22;7917;50.818;6.972;2024-02-28T13:35:14;11.90;99.90
15636;DHT22;7917;50.818;6.972;2024-02-28T13:37:41;12.00;99.90
15636;DHT22;7917;50.818;6.972;2024-02-28T13:40:08;12.00;99.90
15636;DHT22;7917;50.818;6.972;2024-02-28T13:42:36;12.10;99.90
15636;DHT22;7917;50.818;6.972;2024-02-28T13:45:04;12.20;99.90
15636;DHT22;7917;50.818;6.972;2024-02-28T13:47:33;12.30;99.90
15636;DHT22;7917;50.818;6.972;2024-02-28T13:50:00;12.40;99.90
15636;DHT22;7917;50.818;6.972;2024-02-28T13:52:28;12.40;99.90
15636;DHT22;7917;50.818;6.972;2024-02-28T13:54:55;12.20;99.90
15636;DHT22;7917;50.818;6.972;2024-02-28T13:57:21;12.20;99.90
15636;DHT22;7917;50.818;6.972;2024-02-28T13:59:49;12.20;99.90
15636;DHT22;7917;50.818;6.972;2024-02-28T14:02:19;12.10;99.90
15636;DHT22;7917;50.818;6.972;2024-02-28T14:04:46;12.10;99.90
15636;DHT22;7917;50.818;6.972;2024-02-28T14:07:14;12.00;99.90
15636;DHT22;7917;50.818;6.972;2024-02-28T14:09:42;11.80;99.90
15636;DHT22;7917;50.818;6.972;2024-02-28T14:12:10;11.80;99.90
15636;DHT22;7917;50.818;6.972;2024-02-28T14:14:37;11.80;99.90
15636;DHT22;7917;50.818;6.972;2024-02-28T14:17:05;11.70;99.90
15636;DHT22;7917;50.818;6.972;2024-02-28T14:19:32;11.70;99.90
15636;DHT22;7917;50.818;6.972;2024-02-28T14:22:00;11.80;99.90
15636;DHT22;7917;50.818;6.972;2024-02-28T14:24:26;11.90;99.90
15636;DHT22;7917;50.818;6.972;2024-02-28T14:26:53;11.80;99.90
15636;DHT22;7917;50.818;6.972;2024-02-28T14:29:21;11.80;99.90
15636;DHT22;7917;50.818;6.972;2024-02-28T14:31:48;11.70;99.90
15636;DHT22;7917;50.818;6.972;2024-02-28T14:34:14;11.70;99.90
15636;DHT22;7917;50.818;6.972;2024-02-28T14:36:41;11.60;99.90
15636;DHT22;7917;50.818;6.972;2024-02-28T14:39:08;11.90;99.90
15636;DHT22;7917;50.818;6.972;2024-02-28T14:41:41;11.90;99.90
15636;DHT22;7917;50.818;6.972;2024-02-28T14:44:08;11.80;99.90
15636;DHT22;7917;50.818;6.972;2024-02-28T14:46:35;11.90;99.90
15636;DHT22;7917;50.818;6.972;2024-02-28T14:49:01;11.90;99.90
15636;DHT22;7917;50.818;6.972;2024-02-28T14:51:29;11.90;99.90
15636;DHT22;7917;50.818;6.972;2024-02-28T14:53:56;11.90;99.90
15636;DHT22;7917;50.818;6.972;2024-02-28T14:56:23;12.00;99.90
15636;DHT22;7917;50.818;6.972;2024-02-28T14:58:50;12.00;99.90
15636;DHT22;7917;50.818;6.972;2024-02-28T15:01:17;12.20;99.90
15636;DHT22;7917;50.818;6.972;2024-02-28T15:03:43;12.20;99.90
15636;DHT22;7917;50.818;6.972;2024-02-28T15:06:11;12.10;99.90
15636;DHT22;7917;50.818;6.972;2024-02-28T15:08:38;12.30;99.90
15636;DHT22;7917;50.818;6.972;2024-02-28T15:11:04;12.40;99.90
15636;DHT22;7917;50.818;6.972;2024-02-28T15:13:32;12.60;99.90
15636;DHT22;7917;50.818;6.972;2024-02-28T15:15:59;12.70;99.90
15636;DHT22;7917;50.818;6.972;2024-02-28T15:18:26;12.90;99.90
15636;DHT22;7917;50.818;6.972;2024-02-28T15:20:53;12.90;99.90
15636;DHT22;7917;50.818;6.972;2024-02-28T15:23:21;12.70;99.90
15636;DHT22;7917;50.818;6.972;2024-02-28T15:25:48;12.50;99.90
15636;DHT22;7917;50.818;6.972;2024-02-28T15:28:15;12.30;99.90
15636;DHT22;7917;50.818;6.972;2024-02-28T15:30:43;12.20;99.90
15636;DHT22;7917;50.818;6.972;2024-02-28T15:33:10;12.20;99.90
15636;DHT22;7917;50.818;6.972;2024-02-28T15:35:37;12.20;99.90
15636;DHT22;7917;50.818;6.972;2024-02-28T15:38:03;12.20;99.90
15636;DHT22;7917;50.818;6.972;2024-02-28T15:40:31;12.10;99.90
15636;DHT22;7917;50.818;6.972;2024-02-28T15:42:58;12.10;99.90
15636;DHT22;7917;50.818;6.972;2024-02-28T15:45:24;12.00;99.90
15636;DHT22;7917;50.818;6.972;2024-02-28T15:47:53;11.90;99.90
15636;DHT22;7917;50.818;6.972;2024-02-28T15:50:19;11.80;99.90
15636;DHT22;7917;50.818;6.972;2024-02-28T15:52:46;11.70;99.90
15636;DHT22;7917;50.818;6.972;2024-02-28T15:55:13;11.50;99.90
15636;DHT22;7917;50.818;6.972;2024-02-28T15:57:40;11.40;99.90
15636;DHT22;7917;50.818;6.972;2024-02-28T16:00:07;11.30;99.90